createdAt,value
2023-04-18T00:01:31.937Z,95.77
2023-04-18T00:03:58.685Z,95.40
2023-04-18T00:06:25.936Z,95.62
2023-04-18T00:08:52.510Z,95.35
2023-04-18T00:11:19.056Z,95.57
2023-04-18T00:13:47.367Z,95.59
2023-04-18T00:16:14.191Z,95.56
2023-04-18T00:18:40.767Z,95.83
2023-04-18T00:21:08.596Z,96.19
2023-04-18T00:23:36.054Z,95.46
2023-04-18T00:26:03.146Z,95.21
2023-04-18T00:28:29.764Z,94.94
2023-04-18T00:30:56.593Z,95.02
2023-04-18T00:33:23.310Z,94.99
2023-04-18T00:35:49.862Z,94.50
2023-04-18T00:38:16.487Z,95.43
2023-04-18T00:40:43.060Z,95.10
2023-04-18T00:43:09.632Z,94.56
2023-04-18T00:45:37.048Z,94.31
2023-04-18T00:48:03.680Z,94.21
2023-04-18T00:50:30.997Z,93.73
2023-04-18T00:52:58.298Z,94.15
2023-04-18T00:55:25.024Z,93.45
2023-04-18T00:57:52.214Z,92.94
2023-04-18T01:00:18.969Z,93.38
2023-04-18T01:02:47.128Z,93.02
2023-04-18T01:05:13.891Z,92.49
2023-04-18T01:07:43.488Z,92.74
2023-04-18T01:10:11.021Z,92.57
2023-04-18T01:12:37.764Z,92.33
2023-04-18T01:15:07.559Z,92.56
2023-04-18T01:17:38.466Z,92.52
2023-04-18T01:20:06.483Z,92.39
2023-04-18T01:22:33.451Z,91.24
2023-04-18T01:25:00.033Z,91.32
2023-04-18T01:27:26.569Z,91.33
2023-04-18T01:29:53.127Z,90.57
2023-04-18T01:32:20.543Z,91.12
2023-04-18T01:34:47.373Z,91.02
2023-04-18T01:37:13.964Z,91.19
2023-04-18T01:39:40.512Z,90.39
2023-04-18T01:42:07.080Z,91.02
2023-04-18T01:44:33.757Z,90.59
2023-04-18T01:47:00.308Z,90.51
2023-04-18T01:49:26.947Z,90.53
2023-04-18T01:51:53.484Z,89.95
2023-04-18T01:54:20.074Z,89.69
2023-04-18T01:56:46.652Z,89.41
2023-04-18T01:59:13.201Z,89.49
2023-04-18T02:01:39.771Z,89.26
2023-04-18T02:04:06.354Z,89.95
2023-04-18T02:06:32.887Z,89.86
2023-04-18T02:08:59.456Z,88.81
2023-04-18T02:11:26.250Z,89.09
2023-04-18T02:13:52.776Z,89.06
2023-04-18T02:16:19.345Z,88.86
2023-04-18T02:18:47.067Z,88.44
2023-04-18T02:21:13.589Z,88.72
2023-04-18T02:23:40.189Z,88.46
2023-04-18T02:26:06.742Z,88.59
2023-04-18T02:28:33.325Z,88.16
2023-04-18T02:31:00.094Z,88.72
2023-04-18T02:33:26.630Z,87.85
2023-04-18T02:35:53.193Z,88.82
2023-04-18T02:38:19.805Z,88.36
2023-04-18T02:40:46.434Z,88.86
2023-04-18T02:43:13.013Z,88.18
2023-04-18T02:45:39.626Z,88.46
2023-04-18T02:48:06.283Z,88.56
2023-04-18T02:50:32.868Z,87.78
2023-04-18T02:52:59.379Z,87.49
2023-04-18T02:55:26.925Z,88.00
2023-04-18T02:57:53.560Z,88.73
2023-04-18T03:00:20.224Z,87.41
2023-04-18T03:02:46.865Z,88.49
2023-04-18T03:05:13.538Z,87.54
2023-04-18T03:07:40.124Z,88.02
2023-04-18T03:10:07.091Z,88.59
2023-04-18T03:12:33.768Z,88.04
2023-04-18T03:15:00.371Z,87.95
2023-04-18T03:17:27.106Z,87.71
2023-04-18T03:19:53.744Z,88.41
2023-04-18T03:22:20.422Z,88.43
2023-04-18T03:24:46.975Z,88.43
2023-04-18T03:27:13.914Z,88.57
2023-04-18T03:29:40.445Z,88.74
2023-04-18T03:32:06.967Z,88.29
2023-04-18T03:34:33.573Z,88.85
2023-04-18T03:37:00.160Z,88.50
2023-04-18T03:39:26.723Z,88.11
2023-04-18T03:41:53.434Z,87.99
2023-04-18T03:44:19.985Z,88.43
2023-04-18T03:46:46.620Z,87.72
2023-04-18T03:49:13.263Z,88.56
2023-04-18T03:51:47.246Z,88.88
2023-04-18T03:54:15.347Z,88.99
2023-04-18T03:56:42.508Z,89.07
2023-04-18T03:59:09.067Z,88.67
2023-04-18T04:01:35.723Z,89.07
2023-04-18T04:04:03.089Z,88.99
2023-04-18T04:06:30.101Z,88.90
2023-04-18T04:08:56.638Z,89.51
2023-04-18T04:11:23.402Z,89.29
2023-04-18T04:13:49.939Z,89.57
2023-04-18T04:16:16.574Z,89.05
2023-04-18T04:18:43.126Z,90.15
2023-04-18T04:21:09.749Z,89.13
2023-04-18T04:23:36.332Z,89.43
2023-04-18T04:26:05.691Z,89.40
2023-04-18T04:28:32.163Z,90.28
2023-04-18T04:30:59.293Z,89.94
2023-04-18T04:33:28.505Z,89.62
2023-04-18T04:35:55.503Z,89.92
2023-04-18T04:38:25.127Z,90.28
2023-04-18T04:40:52.926Z,90.31
2023-04-18T04:43:20.484Z,89.95
2023-04-18T04:45:52.603Z,88.83
2023-04-18T04:48:20.311Z,89.21
2023-04-18T04:50:56.333Z,90.26
2023-04-18T04:53:24.116Z,89.58
2023-04-18T04:55:51.762Z,89.13
2023-04-18T04:58:19.080Z,89.44
2023-04-18T05:00:46.026Z,89.43
2023-04-18T05:03:12.661Z,90.33
2023-04-18T05:05:39.706Z,88.89
2023-04-18T05:08:06.498Z,88.76
2023-04-18T05:10:33.172Z,89.11
2023-04-18T05:12:59.664Z,89.46
2023-04-18T05:15:26.190Z,89.07
2023-04-18T05:17:52.929Z,89.22
2023-04-18T05:20:19.522Z,89.19
2023-04-18T05:22:46.020Z,89.49
2023-04-18T05:25:12.746Z,89.50
2023-04-18T05:27:39.533Z,88.52
2023-04-18T05:30:06.907Z,89.08
2023-04-18T05:32:33.519Z,89.03
2023-04-18T05:35:00.110Z,89.17
2023-04-18T05:37:26.694Z,89.25
2023-04-18T05:39:53.227Z,89.21
2023-04-18T05:42:19.769Z,89.99
2023-04-18T05:44:46.286Z,90.26
2023-04-18T05:47:12.808Z,89.67
2023-04-18T05:49:39.333Z,89.95
2023-04-18T05:52:05.884Z,88.97
2023-04-18T05:54:32.443Z,89.11
2023-04-18T05:56:59.677Z,88.87
2023-04-18T05:59:26.960Z,88.79
2023-04-18T06:01:53.574Z,88.76
2023-04-18T06:04:20.844Z,88.17
2023-04-18T06:06:47.750Z,88.54
2023-04-18T06:09:14.292Z,88.44
2023-04-18T06:11:40.849Z,88.56
2023-04-18T06:14:07.898Z,87.96
2023-04-18T06:16:36.691Z,88.12
2023-04-18T06:19:05.096Z,88.06
2023-04-18T06:21:32.121Z,88.13
2023-04-18T06:23:58.719Z,88.18
2023-04-18T06:26:25.254Z,88.01
2023-04-18T06:28:51.812Z,87.91
2023-04-18T06:31:18.570Z,88.52
2023-04-18T06:33:45.179Z,88.30
2023-04-18T06:36:11.739Z,88.90
2023-04-18T06:38:38.299Z,88.63
2023-04-18T06:41:04.962Z,89.11
2023-04-18T06:43:31.613Z,89.22
2023-04-18T06:45:59.123Z,88.96
2023-04-18T06:48:25.691Z,89.10
2023-04-18T06:50:52.210Z,88.87
2023-04-18T06:53:18.739Z,89.78
2023-04-18T06:55:45.363Z,88.59
2023-04-18T06:58:13.807Z,89.33
2023-04-18T07:00:40.569Z,89.29
2023-04-18T07:03:11.304Z,88.45
2023-04-18T07:05:41.716Z,87.94
2023-04-18T07:08:08.354Z,88.25
2023-04-18T07:10:34.983Z,88.68
2023-04-18T07:13:01.683Z,89.09
2023-04-18T07:15:28.534Z,89.05
2023-04-18T07:17:55.285Z,88.56
2023-04-18T07:20:21.861Z,87.88
2023-04-18T07:22:48.690Z,87.71
2023-04-18T07:25:15.281Z,87.96
2023-04-18T07:27:41.874Z,87.90
2023-04-18T07:30:09.152Z,88.37
2023-04-18T07:32:35.771Z,88.51
2023-04-18T07:35:03.372Z,87.88
2023-04-18T07:37:30.022Z,87.64
2023-04-18T07:39:56.561Z,87.87
2023-04-18T07:42:23.117Z,87.87
2023-04-18T07:44:49.731Z,88.18
2023-04-18T07:47:16.477Z,86.99
2023-04-18T07:49:43.002Z,86.33
2023-04-18T07:52:09.562Z,86.92
2023-04-18T07:54:36.142Z,86.44
2023-04-18T07:57:02.639Z,86.07
2023-04-18T07:59:29.759Z,85.65
2023-04-18T08:01:56.399Z,85.84
2023-04-18T08:04:23.255Z,85.92
2023-04-18T08:06:49.908Z,86.37
2023-04-18T08:09:18.435Z,87.47
2023-04-18T08:11:45.132Z,85.27
2023-04-18T08:14:11.990Z,84.18
2023-04-18T08:16:39.227Z,84.49
2023-04-18T08:19:06.211Z,84.76
2023-04-18T08:21:32.923Z,84.57
2023-04-18T08:23:59.537Z,84.41
2023-04-18T08:26:26.868Z,83.98
2023-04-18T08:28:53.790Z,83.64
2023-04-18T08:31:20.697Z,83.88
2023-04-18T08:33:47.279Z,83.38
2023-04-18T08:36:14.040Z,82.82
2023-04-18T08:38:40.560Z,81.37
2023-04-18T08:41:08.253Z,80.72
2023-04-18T08:43:34.803Z,80.48
2023-04-18T08:46:01.700Z,80.02
2023-04-18T08:48:28.378Z,80.10
2023-04-18T08:50:59.354Z,80.13
2023-04-18T08:53:26.890Z,80.76
2023-04-18T08:55:57.989Z,80.51
2023-04-18T08:58:27.592Z,81.00
2023-04-18T09:00:54.925Z,80.57
2023-04-18T09:03:42.299Z,81.89
2023-04-18T09:06:18.960Z,81.42
2023-04-18T09:08:59.199Z,81.63
2023-04-18T09:11:30.265Z,81.51
2023-04-18T09:13:59.055Z,81.68
2023-04-18T09:16:27.436Z,81.43
2023-04-18T09:19:16.262Z,81.55
2023-04-18T09:21:48.722Z,81.50
2023-04-18T09:24:21.129Z,82.10
2023-04-18T09:26:49.801Z,82.46
2023-04-18T09:29:22.273Z,83.68
2023-04-18T09:32:01.065Z,83.54
2023-04-18T09:34:28.987Z,83.51
2023-04-18T09:37:13.577Z,84.19
2023-04-18T09:39:42.428Z,84.35
2023-04-18T09:42:10.516Z,84.43
2023-04-18T09:44:38.442Z,84.65
2023-04-18T09:47:07.858Z,85.34
2023-04-18T09:49:34.695Z,85.78
2023-04-18T09:52:06.309Z,87.38
2023-04-18T09:54:35.396Z,85.93
2023-04-18T09:57:05.998Z,86.58
2023-04-18T09:59:48.101Z,86.64
2023-04-18T10:02:19.750Z,87.12
2023-04-18T10:04:47.350Z,86.78
2023-04-18T10:07:16.774Z,86.07
2023-04-18T10:09:46.773Z,87.00
2023-04-18T10:12:14.065Z,85.76
2023-04-18T10:14:43.195Z,85.94
2023-04-18T10:17:11.061Z,85.88
2023-04-18T10:19:41.266Z,85.48
2023-04-18T10:22:08.108Z,86.00
2023-04-18T10:24:53.600Z,86.54
2023-04-18T10:27:49.344Z,86.53
2023-04-18T10:30:16.699Z,85.90
2023-04-18T10:32:45.495Z,87.02
2023-04-18T10:35:12.226Z,87.36
2023-04-18T10:37:59.784Z,86.41
2023-04-18T10:40:35.438Z,86.02
2023-04-18T10:43:02.193Z,86.35
2023-04-18T10:45:31.372Z,86.89
2023-04-18T10:48:31.298Z,85.49
2023-04-18T10:51:17.761Z,86.28
2023-04-18T10:53:49.951Z,85.55
2023-04-18T10:56:16.833Z,86.32
2023-04-18T10:58:50.014Z,86.69
2023-04-18T11:01:31.660Z,86.15
2023-04-18T11:03:59.171Z,86.70
2023-04-18T11:06:27.216Z,87.58
2023-04-18T11:09:13.776Z,87.40
2023-04-18T11:11:41.862Z,87.14
2023-04-18T11:14:08.453Z,87.06
2023-04-18T11:16:35.654Z,87.17
2023-04-18T11:19:21.215Z,87.55
2023-04-18T11:21:47.750Z,87.31
2023-04-18T11:24:22.027Z,87.47
2023-04-18T11:26:48.588Z,87.47
2023-04-18T11:29:17.994Z,87.40
2023-04-18T11:31:50.056Z,88.31
2023-04-18T11:34:16.767Z,87.24
2023-04-18T11:36:43.470Z,88.39
2023-04-18T11:39:10.544Z,87.92
2023-04-18T11:41:37.121Z,86.59
2023-04-18T11:44:06.329Z,87.29
2023-04-18T11:46:39.855Z,88.09
2023-04-18T11:49:06.376Z,89.50
2023-04-18T11:51:44.709Z,88.34
2023-04-18T11:54:42.995Z,88.55
2023-04-18T11:57:22.386Z,88.08
2023-04-18T11:59:57.852Z,87.81
2023-04-18T12:02:25.842Z,88.58
2023-04-18T12:05:00.210Z,89.09
2023-04-18T12:07:40.014Z,87.67
2023-04-18T12:10:28.240Z,87.16
2023-04-18T12:12:57.557Z,87.60
2023-04-18T12:15:28.568Z,88.04
2023-04-18T12:18:02.543Z,87.93
2023-04-18T12:20:51.859Z,87.68
2023-04-18T12:23:39.018Z,86.98
2023-04-18T12:26:21.078Z,87.45
2023-04-18T12:28:50.386Z,87.70
2023-04-18T12:31:17.097Z,89.12
2023-04-18T12:33:43.686Z,88.32
2023-04-18T12:36:12.786Z,88.05
2023-04-18T12:38:39.539Z,88.71
2023-04-18T12:41:06.302Z,88.59
2023-04-18T12:43:32.855Z,89.12
2023-04-18T12:45:59.974Z,87.74
2023-04-18T12:48:26.554Z,87.39
2023-04-18T12:50:53.107Z,86.64
2023-04-18T12:53:19.683Z,86.47
2023-04-18T12:55:46.266Z,89.02
2023-04-18T12:58:18.399Z,87.76
2023-04-18T13:00:44.940Z,89.40
2023-04-18T13:03:13.469Z,88.34
2023-04-18T13:05:40.453Z,87.43
2023-04-18T13:08:16.141Z,86.96
2023-04-18T13:10:45.101Z,88.02
2023-04-18T13:13:11.912Z,88.63
2023-04-18T13:15:38.778Z,88.05
2023-04-18T13:18:06.742Z,86.74
2023-04-18T13:20:34.440Z,87.10
2023-04-18T13:23:02.810Z,87.20
2023-04-18T13:25:29.603Z,87.48
2023-04-18T13:27:58.241Z,86.71
2023-04-18T13:30:24.797Z,87.66
2023-04-18T13:32:51.761Z,87.12
2023-04-18T13:35:18.527Z,87.58
2023-04-18T13:37:46.117Z,88.92
2023-04-18T13:40:14.456Z,87.84
2023-04-18T13:42:41.088Z,87.32
2023-04-18T13:45:08.011Z,86.71
2023-04-18T13:47:34.995Z,86.42
2023-04-18T13:50:01.717Z,85.67
2023-04-18T13:52:28.434Z,86.38
2023-04-18T13:54:55.019Z,85.65
2023-04-18T13:57:22.026Z,87.03
2023-04-18T13:59:48.632Z,86.97
2023-04-18T14:02:15.300Z,86.40
2023-04-18T14:04:42.004Z,86.38
2023-04-18T14:07:09.131Z,85.88
2023-04-18T14:09:35.781Z,85.44
2023-04-18T14:12:02.319Z,86.03
2023-04-18T14:14:29.172Z,85.73
2023-04-18T14:16:55.806Z,86.20
2023-04-18T14:19:22.423Z,85.58
2023-04-18T14:21:48.953Z,85.77
2023-04-18T14:24:15.707Z,85.36
2023-04-18T14:26:42.456Z,85.80
2023-04-18T14:29:09.013Z,86.16
2023-04-18T14:31:35.776Z,85.03
2023-04-18T14:34:02.702Z,86.32
2023-04-18T14:36:29.417Z,85.44
2023-04-18T14:38:55.997Z,85.58
2023-04-18T14:41:23.889Z,87.26
2023-04-18T14:43:50.440Z,85.36
2023-04-18T14:46:17.092Z,85.04
2023-04-18T14:48:50.014Z,84.71
2023-04-18T14:51:16.869Z,85.00
2023-04-18T14:53:44.610Z,84.93
2023-04-18T14:56:11.397Z,85.26
2023-04-18T14:58:38.042Z,85.21
2023-04-18T15:01:05.751Z,86.20
2023-04-18T15:03:32.587Z,85.96
2023-04-18T15:05:59.280Z,85.63
2023-04-18T15:08:25.990Z,85.25
2023-04-18T15:10:52.581Z,85.57
2023-04-18T15:13:19.453Z,85.53
2023-04-18T15:15:53.984Z,86.37
2023-04-18T15:18:21.209Z,86.35
2023-04-18T15:20:48.244Z,86.49
2023-04-18T15:23:15.388Z,86.57
2023-04-18T15:25:44.312Z,87.00
2023-04-18T15:28:13.273Z,87.09
2023-04-18T15:30:40.180Z,87.15
2023-04-18T15:33:07.221Z,87.34
2023-04-18T15:35:34.344Z,87.69
2023-04-18T15:38:01.011Z,87.99
2023-04-18T15:40:27.627Z,88.43
2023-04-18T15:42:54.564Z,87.97
2023-04-18T15:45:21.802Z,87.65
2023-04-18T15:47:48.459Z,87.55
2023-04-18T15:50:18.224Z,87.69
2023-04-18T15:52:44.769Z,87.42
2023-04-18T15:55:22.195Z,88.67
2023-04-18T15:57:48.846Z,87.93
2023-04-18T16:00:16.058Z,87.81
2023-04-18T16:02:46.671Z,87.27
2023-04-18T16:05:14.068Z,86.87
2023-04-18T16:07:42.228Z,87.81
2023-04-18T16:10:10.558Z,88.00
2023-04-18T16:12:38.665Z,88.55
2023-04-18T16:15:06.985Z,88.62
2023-04-18T16:17:33.602Z,88.02
2023-04-18T16:20:00.309Z,87.24
2023-04-18T16:22:26.872Z,88.05
2023-04-18T16:24:53.404Z,87.76
2023-04-18T16:27:20.000Z,87.20
2023-04-18T16:29:47.229Z,88.18
2023-04-18T16:32:13.824Z,87.43
2023-04-18T16:34:40.351Z,87.79
2023-04-18T16:37:06.881Z,87.55
2023-04-18T16:39:33.541Z,88.24
2023-04-18T16:42:00.064Z,88.86
2023-04-18T16:44:26.629Z,89.16
2023-04-18T16:46:53.178Z,87.42
2023-04-18T16:49:20.498Z,87.57
2023-04-18T16:51:47.111Z,87.75
2023-04-18T16:54:13.971Z,87.26
2023-04-18T16:56:41.387Z,87.59
2023-04-18T16:59:09.388Z,87.94
2023-04-18T17:01:36.216Z,88.95
2023-04-18T17:04:02.992Z,89.04
2023-04-18T17:06:31.513Z,89.13
2023-04-18T17:08:58.907Z,88.33
2023-04-18T17:11:25.539Z,88.72
2023-04-18T17:13:52.233Z,89.96
2023-04-18T17:16:18.887Z,90.53
2023-04-18T17:18:45.449Z,90.01
2023-04-18T17:21:12.594Z,88.37
2023-04-18T17:23:41.570Z,89.19
2023-04-18T17:26:09.214Z,89.10
2023-04-18T17:28:36.480Z,88.43
2023-04-18T17:31:03.212Z,89.14
2023-04-18T17:33:30.388Z,89.58
2023-04-18T17:35:57.437Z,88.96
2023-04-18T17:38:24.138Z,88.86
2023-04-18T17:41:01.906Z,88.43
2023-04-18T17:43:31.008Z,89.48
2023-04-18T17:45:59.662Z,89.87
2023-04-18T17:48:28.433Z,89.13
2023-04-18T17:50:54.979Z,89.04
2023-04-18T17:53:22.345Z,89.64
2023-04-18T17:55:52.054Z,89.33
2023-04-18T17:58:19.821Z,90.23
2023-04-18T18:00:46.552Z,90.50
2023-04-18T18:03:14.565Z,90.36
2023-04-18T18:05:41.931Z,89.82
2023-04-18T18:08:11.183Z,90.13
2023-04-18T18:10:37.760Z,89.48
2023-04-18T18:13:04.712Z,90.39
2023-04-18T18:15:31.968Z,90.11
2023-04-18T18:17:59.579Z,90.58
2023-04-18T18:20:27.366Z,91.02
2023-04-18T18:23:00.002Z,90.93
2023-04-18T18:25:27.458Z,90.50
2023-04-18T18:27:54.588Z,91.40
2023-04-18T18:30:21.143Z,90.46
2023-04-18T18:32:47.879Z,90.45
2023-04-18T18:35:14.448Z,90.19
2023-04-18T18:37:41.069Z,91.52
2023-04-18T18:40:08.482Z,91.48
2023-04-18T18:42:35.169Z,91.34
2023-04-18T18:45:02.726Z,91.18
2023-04-18T18:47:30.566Z,90.84
2023-04-18T18:49:57.273Z,91.63
2023-04-18T18:52:24.783Z,91.77
2023-04-18T18:54:51.427Z,91.63
2023-04-18T18:57:17.961Z,91.38
2023-04-18T18:59:44.499Z,90.61
2023-04-18T19:02:11.601Z,91.04
2023-04-18T19:04:38.377Z,90.60
2023-04-18T19:07:06.007Z,90.34
2023-04-18T19:09:32.699Z,90.56
2023-04-18T19:11:59.364Z,90.49
2023-04-18T19:14:25.967Z,90.39
2023-04-18T19:16:53.092Z,90.88
2023-04-18T19:19:19.602Z,90.12
2023-04-18T19:21:46.287Z,90.63
2023-04-18T19:24:13.315Z,89.99
2023-04-18T19:26:40.010Z,90.73
2023-04-18T19:29:07.839Z,90.74
2023-04-18T19:31:35.121Z,90.90
2023-04-18T19:34:02.356Z,90.38
2023-04-18T19:36:28.864Z,90.39
2023-04-18T19:38:55.380Z,89.85
2023-04-18T19:41:21.980Z,89.72
2023-04-18T19:43:48.567Z,90.00
2023-04-18T19:46:15.460Z,91.28
2023-04-18T19:48:42.080Z,91.29
2023-04-18T19:51:08.567Z,90.77
2023-04-18T19:53:35.070Z,90.47
2023-04-18T19:56:01.702Z,91.17
2023-04-18T19:58:45.009Z,90.31
2023-04-18T20:01:12.864Z,90.40
2023-04-18T20:03:40.989Z,89.32
2023-04-18T20:06:08.336Z,89.27
2023-04-18T20:08:39.436Z,87.63
2023-04-18T20:11:10.434Z,88.28
2023-04-18T20:13:37.502Z,88.56
2023-04-18T20:16:05.370Z,88.23
2023-04-18T20:18:32.502Z,88.19
2023-04-18T20:20:59.033Z,88.00
2023-04-18T20:23:25.551Z,88.28
2023-04-18T20:25:52.114Z,88.70
2023-04-18T20:28:18.660Z,88.13
2023-04-18T20:30:45.707Z,88.96
2023-04-18T20:33:12.518Z,88.34
2023-04-18T20:35:39.064Z,89.23
2023-04-18T20:38:06.534Z,88.54
2023-04-18T20:40:34.208Z,88.65
2023-04-18T20:43:02.941Z,88.99
2023-04-18T20:45:29.971Z,89.82
2023-04-18T20:47:56.906Z,89.52
2023-04-18T20:50:23.520Z,89.27
2023-04-18T20:52:50.090Z,88.99
2023-04-18T20:55:19.420Z,89.18
2023-04-18T20:57:46.028Z,89.52
2023-04-18T21:00:14.049Z,89.85
2023-04-18T21:02:41.654Z,89.12
2023-04-18T21:05:08.846Z,89.05
2023-04-18T21:07:36.354Z,89.71
2023-04-18T21:10:04.003Z,89.72
2023-04-18T21:12:30.588Z,89.11
2023-04-18T21:14:57.098Z,89.46
2023-04-18T21:17:25.547Z,89.80
2023-04-18T21:19:52.621Z,90.15
2023-04-18T21:22:19.282Z,89.90
2023-04-18T21:24:46.795Z,90.03
2023-04-18T21:27:15.064Z,89.75
2023-04-18T21:29:41.814Z,90.14
2023-04-18T21:32:08.373Z,90.29
2023-04-18T21:34:34.854Z,90.14
2023-04-18T21:37:01.439Z,89.83
2023-04-18T21:39:28.023Z,89.81
2023-04-18T21:41:54.530Z,90.15
2023-04-18T21:44:21.122Z,89.89
2023-04-18T21:46:47.652Z,90.66
2023-04-18T21:49:14.370Z,90.33
2023-04-18T21:51:40.882Z,90.60
2023-04-18T21:54:07.908Z,91.15
2023-04-18T21:56:34.444Z,90.57
2023-04-18T21:59:01.018Z,90.75
2023-04-18T22:01:27.704Z,90.97
2023-04-18T22:03:54.356Z,91.64
2023-04-18T22:06:23.095Z,92.25
2023-04-18T22:08:50.041Z,91.57
2023-04-18T22:11:16.661Z,90.88
2023-04-18T22:13:45.110Z,91.78
2023-04-18T22:16:11.977Z,91.62
2023-04-18T22:18:38.550Z,91.74
2023-04-18T22:21:05.280Z,91.31
2023-04-18T22:23:31.935Z,90.82
2023-04-18T22:25:58.548Z,90.60
2023-04-18T22:28:27.756Z,90.52
2023-04-18T22:30:54.367Z,90.75
2023-04-18T22:33:20.942Z,90.06
2023-04-18T22:35:48.570Z,90.73
2023-04-18T22:38:15.361Z,90.49
2023-04-18T22:40:42.081Z,91.01
2023-04-18T22:43:08.585Z,90.92
2023-04-18T22:45:35.294Z,90.98
2023-04-18T22:48:01.895Z,90.77
2023-04-18T22:50:30.198Z,90.17
2023-04-18T22:52:57.506Z,91.15
2023-04-18T22:55:24.098Z,91.08
2023-04-18T22:57:50.647Z,90.44
2023-04-18T23:00:17.344Z,90.08
2023-04-18T23:02:44.089Z,90.73
2023-04-18T23:05:11.537Z,89.94
2023-04-18T23:07:38.062Z,89.98
2023-04-18T23:10:06.713Z,90.47
2023-04-18T23:12:33.368Z,90.66
2023-04-18T23:14:59.941Z,90.20
2023-04-18T23:17:26.508Z,89.94
2023-04-18T23:19:53.041Z,90.53
2023-04-18T23:22:20.393Z,89.71
2023-04-18T23:24:46.899Z,89.86
2023-04-18T23:27:13.393Z,89.17
2023-04-18T23:29:40.016Z,89.32
2023-04-18T23:32:08.232Z,90.30
2023-04-18T23:34:34.778Z,90.61
2023-04-18T23:37:01.320Z,89.33
2023-04-18T23:39:27.881Z,89.19
2023-04-18T23:41:54.457Z,89.08
2023-04-18T23:44:20.976Z,89.37
2023-04-18T23:46:48.063Z,89.54
2023-04-18T23:49:15.405Z,89.59
2023-04-18T23:51:42.498Z,89.54
2023-04-18T23:54:09.036Z,89.56
2023-04-18T23:56:35.744Z,89.76
2023-04-18T23:59:02.468Z,89.26
